Time;durP1;ratioP1;P1;durP2;ratioP2;P2;SDS_P1;SDS_P2;PMS_P1;PMS_P2;Temp;Humidity;BMP_temperature;BMP_pressure;BME280_temperature;BME280_humidity;BME280_pressure;Samples;Min_cycle;Max_cycle;Signal;HPM_P1;HPM_P2
2022/11/10 00:00:28;;;;;;;9.10;2.55;;;;;;;9.63;95.98;101493.25;4994141;28;20045;-80
2022/11/10 00:03:12;;;;;;;15.00;3.08;;;;;;;9.68;96.12;101501.41;5008697;28;20088;-78
2022/11/10 00:05:56;;;;;;;8.70;2.60;;;;;;;9.60;96.14;101507.25;4991388;28;20105;-79
2022/11/10 00:08:40;;;;;;;14.25;3.60;;;;;;;9.51;96.69;101502.88;4986495;28;20407;-80
2022/11/10 00:11:24;;;;;;;14.57;2.20;;;;;;;9.68;96.17;101499.66;4989355;28;20048;-79
2022/11/10 00:17:13;;;;;;;;;;;;;;;9.53;96.72;101490.59;4991816;28;20069;-82
2022/11/10 00:19:57;;;;;;;17.52;3.72;;;;;;;9.51;96.82;101487.34;4989029;28;20025;-78
2022/11/10 00:22:41;;;;;;;16.58;3.55;;;;;;;9.41;96.90;101499.44;4981922;28;20046;-80
2022/11/10 00:25:26;;;;;;;13.95;2.42;;;;;;;9.49;96.84;101504.78;4990352;28;20101;-78
2022/11/10 00:28:10;;;;;;;12.15;3.47;;;;;;;9.46;97.04;101508.44;4998839;28;20094;-82
2022/11/10 00:30:55;;;;;;;14.30;3.28;;;;;;;9.40;97.28;101515.91;4988869;28;20046;-81
2022/11/10 00:33:43;;;;;;;9.98;3.05;;;;;;;9.51;96.60;101514.06;4986975;28;20049;-80
2022/11/10 00:36:28;;;;;;;11.18;2.53;;;;;;;9.46;96.53;101525.75;4995216;28;20045;-79
2022/11/10 00:39:11;;;;;;;13.50;3.05;;;;;;;9.40;96.94;101536.63;4993140;28;20082;-79
2022/11/10 00:41:56;;;;;;;14.15;3.10;;;;;;;9.51;96.42;101531.34;4986410;28;20044;-79
2022/11/10 00:44:40;;;;;;;10.27;2.92;;;;;;;9.47;96.88;101519.63;4983606;28;20104;-80
2022/11/10 00:47:24;;;;;;;10.30;2.50;;;;;;;9.48;96.70;101535.03;4983717;28;21601;-77
2022/11/10 00:50:08;;;;;;;7.35;1.70;;;;;;;9.38;97.04;101533.34;4987704;28;20131;-77
2022/11/10 00:52:52;;;;;;;10.88;1.90;;;;;;;9.42;97.38;101534.72;4991545;28;20045;-78
2022/11/10 00:55:39;;;;;;;16.80;2.45;;;;;;;9.26;97.68;101537.78;4989570;28;20136;-78
2022/11/10 00:58:23;;;;;;;9.45;2.30;;;;;;;9.21;97.70;101534.75;4991678;28;20173;-77
2022/11/10 01:01:10;;;;;;;14.35;3.42;;;;;;;9.22;98.01;101537.22;4988003;28;20543;-81
2022/11/10 01:03:54;;;;;;;16.23;2.17;;;;;;;9.18;97.98;101533.25;4989344;28;20070;-79
2022/11/10 01:06:38;;;;;;;19.88;3.28;;;;;;;9.22;98.18;101534.63;4991171;28;20053;-82
2022/11/10 01:09:21;;;;;;;7.95;1.65;;;;;;;9.23;98.27;101533.72;4992179;28;20081;-78
2022/11/10 01:12:06;;;;;;;13.50;3.03;;;;;;;9.15;98.40;101539.53;4991407;28;20052;-79
2022/11/10 01:14:49;;;;;;;15.48;2.40;;;;;;;9.08;98.93;101543.56;4986181;28;20101;-80
2022/11/10 01:17:39;;;;;;;11.38;1.90;;;;;;;9.05;99.16;101555.94;4988977;28;20049;-79
2022/11/10 01:20:24;;;;;;;7.90;1.80;;;;;;;9.07;99.23;101549.69;4989261;28;20053;-78
2022/11/10 01:23:09;;;;;;;14.55;2.22;;;;;;;9.24;98.56;101552.63;4987003;28;20049;-77
2022/11/10 01:26:03;;;;;;;19.10;3.08;;;;;;;9.11;98.89;101558.00;4987394;28;20146;-77
2022/11/10 01:28:47;;;;;;;14.55;2.30;;;;;;;9.22;98.55;101565.69;4988381;28;20049;-79
2022/11/10 01:31:31;;;;;;;13.10;1.65;;;;;;;9.20;98.56;101567.59;4996770;28;20049;-78
2022/11/10 01:34:15;;;;;;;12.10;1.85;;;;;;;9.18;98.35;101566.09;4990495;28;20076;-78
2022/11/10 01:36:59;;;;;;;9.80;2.30;;;;;;;9.14;98.45;101571.50;4988811;28;20045;-77
2022/11/10 01:39:43;;;;;;;18.20;2.30;;;;;;;9.14;98.69;101573.28;4986728;28;20519;-78
2022/11/10 01:42:41;;;;;;;12.88;1.75;;;;;;;9.07;98.69;101578.13;4991025;28;20193;-79
2022/11/10 01:45:25;;;;;;;11.38;1.58;;;;;;;9.05;99.23;101581.81;4987316;28;20044;-78
2022/11/10 01:48:15;;;;;;;9.60;1.75;;;;;;;9.18;98.83;101574.66;4995130;28;20141;-79
2022/11/10 01:51:04;;;;;;;13.90;1.80;;;;;;;9.18;98.15;101589.38;4990038;28;20045;-77
2022/11/10 01:53:52;;;;;;;10.27;1.70;;;;;;;9.19;98.29;101591.81;4990245;28;20471;-77
2022/11/10 01:56:43;;;;;;;9.40;1.83;;;;;;;9.10;98.57;101590.84;4985017;28;20565;-77
2022/11/10 01:59:31;;;;;;;15.45;1.80;;;;;;;9.09;99.24;101596.13;4991309;28;20053;-77
2022/11/10 02:02:31;;;;;;;5.70;1.65;;;;;;;9.06;99.49;101593.78;4992906;28;20129;-80
2022/11/10 02:05:15;;;;;;;6.18;1.50;;;;;;;8.95;99.57;101603.25;4993327;28;20088;-78
2022/11/10 02:08:00;;;;;;;11.75;1.77;;;;;;;8.93;99.86;101606.94;4984640;28;20076;-78
2022/11/10 02:10:44;;;;;;;8.52;1.80;;;;;;;8.89;100.00;101614.13;4986685;28;21591;-77
2022/11/10 02:13:28;;;;;;;11.57;2.85;;;;;;;8.87;100.00;101610.84;4987325;28;20094;-80
2022/11/10 02:16:12;;;;;;;15.85;2.38;;;;;;;9.03;100.00;101605.22;4991130;28;20407;-78
2022/11/10 02:18:57;;;;;;;11.93;2.47;;;;;;;9.04;99.55;101609.47;4992777;28;20081;-77
2022/11/10 02:21:40;;;;;;;17.25;2.13;;;;;;;8.98;99.56;101614.31;4987674;28;20510;-78
2022/11/10 02:24:24;;;;;;;11.02;1.90;;;;;;;8.95;99.95;101618.78;4992299;28;20557;-78
2022/11/10 02:27:08;;;;;;;14.80;2.05;;;;;;;8.87;100.00;101621.19;4989998;28;20056;-78
2022/11/10 02:29:53;;;;;;;9.73;2.42;;;;;;;8.84;100.00;101616.25;4985771;28;20058;-83
2022/11/10 02:32:36;;;;;;;9.52;2.47;;;;;;;8.89;100.00;101615.84;4985533;28;20049;-80
2022/11/10 02:35:20;;;;;;;17.92;1.80;;;;;;;8.89;100.00;101608.09;4988885;28;20069;-79
2022/11/10 02:38:05;;;;;;;12.77;2.08;;;;;;;8.79;100.00;101604.63;4983996;28;20049;-77
2022/11/10 02:40:49;;;;;;;10.07;2.05;;;;;;;8.80;100.00;101611.44;5002282;28;20519;-79
2022/11/10 02:43:33;;;;;;;12.55;2.20;;;;;;;8.87;100.00;101607.41;4984246;28;20517;-77
2022/11/10 02:46:18;;;;;;;13.73;1.83;;;;;;;8.88;100.00;101609.06;4981999;28;20463;-81
2022/11/10 02:49:02;;;;;;;15.32;2.00;;;;;;;8.80;100.00;101614.00;4986869;28;20100;-79
2022/11/10 02:51:49;;;;;;;13.95;2.50;;;;;;;8.74;100.00;101626.53;4991747;28;20053;-78
2022/11/10 02:54:33;;;;;;;12.27;2.42;;;;;;;8.76;100.00;101627.22;4987407;28;20198;-78
2022/11/10 02:57:17;;;;;;;22.85;2.20;;;;;;;8.76;100.00;101634.97;4989857;28;20100;-79
2022/11/10 03:00:01;;;;;;;9.60;2.35;;;;;;;8.85;100.00;101640.34;4987358;28;20105;-77
2022/11/10 03:02:45;;;;;;;19.33;1.98;;;;;;;8.87;100.00;101643.63;4989174;28;20082;-77
2022/11/10 03:05:29;;;;;;;19.15;2.55;;;;;;;8.76;100.00;101653.06;4985984;28;20045;-80
2022/11/10 03:08:13;;;;;;;9.20;2.17;;;;;;;8.70;100.00;101655.31;4986824;28;20045;-77
2022/11/10 03:10:57;;;;;;;23.30;2.40;;;;;;;8.75;100.00;101658.38;4982768;28;20093;-78
2022/11/10 03:13:41;;;;;;;18.73;2.00;;;;;;;8.70;100.00;101661.34;4987583;28;20134;-76
2022/11/10 03:16:25;;;;;;;19.58;2.20;;;;;;;8.75;100.00;101651.41;4983844;28;20065;-77
2022/11/10 03:19:09;;;;;;;17.27;2.75;;;;;;;8.93;100.00;101640.56;4988296;28;20050;-77
2022/11/10 03:21:53;;;;;;;23.52;2.45;;;;;;;8.82;100.00;101638.00;4983201;28;20085;-79
2022/11/10 03:24:37;;;;;;;8.55;2.20;;;;;;;8.86;100.00;101652.34;4993316;28;20081;-79
2022/11/10 03:27:21;;;;;;;23.98;4.28;;;;;;;8.85;100.00;101648.91;4993702;28;20068;-78
2022/11/10 03:30:06;;;;;;;11.45;1.90;;;;;;;8.86;100.00;101660.91;4987094;28;20089;-78
2022/11/10 03:32:50;;;;;;;17.15;2.20;;;;;;;8.77;100.00;101659.06;4987930;28;20089;-78
2022/11/10 03:35:35;;;;;;;17.55;2.17;;;;;;;8.84;100.00;101669.75;4986486;28;20057;-79
2022/11/10 03:38:19;;;;;;;20.75;2.22;;;;;;;8.84;100.00;101674.91;4974896;28;20542;-79
2022/11/10 03:41:03;;;;;;;16.75;2.15;;;;;;;8.83;100.00;101678.44;4985226;28;20045;-79
2022/11/10 03:43:48;;;;;;;11.82;2.50;;;;;;;8.84;100.00;101677.50;4989637;28;20439;-82
2022/11/10 03:46:32;;;;;;;18.30;2.58;;;;;;;8.98;100.00;101677.19;4984803;28;20054;-79
2022/11/10 03:49:16;;;;;;;10.70;1.90;;;;;;;8.87;100.00;101688.44;4988436;28;20049;-80
2022/11/10 03:52:00;;;;;;;13.93;2.17;;;;;;;8.84;100.00;101693.03;4993094;28;20065;-77
2022/11/10 03:54:44;;;;;;;18.17;2.50;;;;;;;8.85;100.00;101697.22;4990807;28;20042;-79
2022/11/10 03:57:28;;;;;;;15.75;2.60;;;;;;;8.89;100.00;101706.38;4992550;28;20056;-80
2022/11/10 04:00:12;;;;;;;18.08;2.53;;;;;;;8.89;100.00;101704.66;4988574;28;20049;-81
2022/11/10 04:02:56;;;;;;;15.18;2.63;;;;;;;8.85;100.00;101710.97;4982456;28;20045;-77
2022/11/10 04:08:59;;;;;;;17.70;2.20;;;;;;;8.77;100.00;101715.94;4991132;28;20104;-82
2022/11/10 04:17:50;;;;;;;14.00;3.00;;;;;;;8.60;100.00;101740.56;4985029;28;21056;-77
2022/11/10 04:20:34;;;;;;;9.30;1.92;;;;;;;8.70;100.00;101727.72;4995778;28;20455;-78
2022/11/10 04:23:29;;;;;;;15.52;1.85;;;;;;;8.67;100.00;101733.16;4991346;28;20057;-78
2022/11/10 04:26:29;;;;;;;15.27;2.63;;;;;;;8.71;100.00;101742.31;4993972;28;20091;-78
2022/11/10 04:29:19;;;;;;;19.73;3.00;;;;;;;8.70;100.00;101743.22;4992992;28;20129;-77
2022/11/10 04:32:03;;;;;;;12.93;2.70;;;;;;;8.61;100.00;101744.78;4994484;28;20049;-78
2022/11/10 04:34:47;;;;;;;16.20;2.72;;;;;;;8.65;100.00;101750.56;4986956;28;20049;-80
2022/11/10 04:37:31;;;;;;;16.98;2.03;;;;;;;8.69;100.00;101751.94;4992949;28;20045;-78
2022/11/10 04:40:15;;;;;;;10.98;2.60;;;;;;;8.65;100.00;101755.72;4991972;28;20428;-81
2022/11/10 04:42:59;;;;;;;9.95;1.75;;;;;;;8.61;100.00;101764.63;4983768;28;20049;-77
2022/11/10 04:45:43;;;;;;;12.63;1.80;;;;;;;8.61;100.00;101762.91;4992466;28;20084;-82
2022/11/10 04:48:28;;;;;;;13.10;2.40;;;;;;;8.55;100.00;101787.47;4994586;28;20053;-77
2022/11/10 04:51:12;;;;;;;11.27;1.95;;;;;;;8.52;100.00;101782.50;4990902;28;20093;-83
2022/11/10 04:53:56;;;;;;;12.20;2.25;;;;;;;8.50;100.00;101786.97;4992149;28;20045;-80
2022/11/10 04:56:41;;;;;;;20.90;2.30;;;;;;;8.47;100.00;101782.03;4993802;28;20053;-78
2022/11/10 04:59:25;;;;;;;25.40;2.25;;;;;;;8.48;100.00;101796.63;4993664;28;20044;-79
2022/11/10 05:02:09;;;;;;;15.73;2.33;;;;;;;8.54;100.00;101797.91;4985676;28;20053;-81
2022/11/10 05:04:53;;;;;;;7.95;1.88;;;;;;;8.47;100.00;101809.66;4987731;28;20049;-82
2022/11/10 05:07:37;;;;;;;21.38;2.10;;;;;;;8.46;100.00;101805.44;4987793;28;20045;-79
2022/11/10 05:10:21;;;;;;;8.35;2.28;;;;;;;8.39;100.00;101812.81;4992425;28;20092;-81
2022/11/10 05:13:06;;;;;;;15.68;3.08;;;;;;;8.41;100.00;101817.84;4985068;28;20110;-79
2022/11/10 05:15:51;;;;;;;15.65;2.03;;;;;;;8.41;100.00;101820.44;4987313;28;20470;-79
2022/11/10 05:18:35;;;;;;;23.25;3.00;;;;;;;8.49;100.00;101833.63;4986708;28;20050;-78
2022/11/10 05:21:19;;;;;;;15.43;1.88;;;;;;;8.47;100.00;101836.31;4993420;28;20065;-79
2022/11/10 05:24:03;;;;;;;18.50;2.38;;;;;;;8.44;100.00;101836.56;4990466;28;20093;-79
2022/11/10 05:26:47;;;;;;;18.67;2.25;;;;;;;8.38;100.00;101843.00;4993110;28;20037;-79
2022/11/10 05:29:31;;;;;;;17.33;5.15;;;;;;;8.36;100.00;101850.06;4989540;28;20097;-78
2022/11/10 05:32:15;;;;;;;11.52;3.03;;;;;;;8.32;100.00;101842.63;4992233;28;20103;-80
2022/11/10 05:34:59;;;;;;;16.75;5.10;;;;;;;8.31;100.00;101849.56;4985463;28;20579;-79
2022/11/10 05:37:43;;;;;;;18.05;6.88;;;;;;;8.28;100.00;101842.03;4988811;28;20097;-79
2022/11/10 05:40:27;;;;;;;19.00;5.20;;;;;;;8.28;100.00;101856.72;4991514;28;20073;-77
2022/11/10 05:43:11;;;;;;;15.07;4.30;;;;;;;8.43;100.00;101858.19;4988262;28;20065;-80
2022/11/10 05:45:56;;;;;;;12.02;2.20;;;;;;;8.47;100.00;101853.59;4990288;28;20048;-80
2022/11/10 05:48:40;;;;;;;14.30;4.28;;;;;;;8.35;100.00;101850.16;4991107;28;20414;-81
2022/11/10 05:51:24;;;;;;;22.38;4.18;;;;;;;8.28;100.00;101854.13;4989492;28;20047;-81
2022/11/10 05:54:08;;;;;;;12.55;2.40;;;;;;;8.31;100.00;101854.72;4987091;28;20065;-81
2022/11/10 05:56:52;;;;;;;17.15;2.75;;;;;;;8.30;100.00;101863.41;4985572;28;20450;-81
2022/11/10 05:59:36;;;;;;;21.38;6.03;;;;;;;8.34;100.00;101864.84;4985146;28;20046;-78
2022/11/10 06:02:20;;;;;;;18.77;2.90;;;;;;;8.32;100.00;101858.13;4987339;28;20603;-83
2022/11/10 06:05:05;;;;;;;13.60;2.30;;;;;;;8.29;100.00;101866.13;4991125;28;20049;-78
2022/11/10 06:07:49;;;;;;;20.98;5.38;;;;;;;8.24;100.00;101858.72;4986700;28;20049;-80
2022/11/10 06:10:34;;;;;;;24.60;2.80;;;;;;;8.33;100.00;101867.53;4988502;28;20048;-79
2022/11/10 06:13:18;;;;;;;12.27;1.80;;;;;;;8.24;100.00;101869.03;4986754;28;20061;-78
2022/11/10 06:16:02;;;;;;;16.08;2.80;;;;;;;8.21;100.00;101868.44;4989267;28;20049;-78
2022/11/10 06:18:46;;;;;;;14.77;3.10;;;;;;;8.23;100.00;101867.41;4989013;28;20054;-78
2022/11/10 06:21:30;;;;;;;24.52;2.75;;;;;;;8.32;100.00;101878.81;4984243;28;20120;-79
2022/11/10 06:24:14;;;;;;;19.92;3.35;;;;;;;8.26;100.00;101879.28;4989674;28;20495;-77
2022/11/10 06:26:58;;;;;;;17.90;3.33;;;;;;;8.24;100.00;101883.75;4988249;28;20052;-77
2022/11/10 06:29:42;;;;;;;14.25;2.40;;;;;;;8.31;100.00;101879.75;4986947;28;20049;-79
2022/11/10 06:32:26;;;;;;;14.02;2.42;;;;;;;8.33;100.00;101889.03;4986922;28;20558;-79
2022/11/10 06:35:11;;;;;;;15.70;2.40;;;;;;;8.34;100.00;101901.03;4983811;28;20092;-77
2022/11/10 06:38:00;;;;;;;15.32;3.33;;;;;;;8.35;100.00;101904.44;4986741;28;20036;-82
2022/11/10 06:40:44;;;;;;;16.45;2.15;;;;;;;8.36;100.00;101908.66;4992410;28;20189;-79
2022/11/10 06:43:29;;;;;;;14.15;2.08;;;;;;;8.31;100.00;101911.59;4983232;28;20415;-82
2022/11/10 06:46:12;;;;;;;16.42;2.83;;;;;;;8.30;100.00;101915.09;4991230;28;20049;-79
2022/11/10 06:48:56;;;;;;;11.68;2.03;;;;;;;8.24;100.00;101928.47;4986624;28;20101;-79
2022/11/10 06:51:40;;;;;;;24.73;8.10;;;;;;;8.29;100.00;101923.00;4986670;28;20133;-80
2022/11/10 06:54:24;;;;;;;15.48;3.03;;;;;;;8.30;100.00;101935.78;4988962;28;20057;-80
2022/11/10 06:57:08;;;;;;;9.85;2.88;;;;;;;8.32;100.00;101935.66;4982677;28;20048;-80
2022/11/10 06:59:52;;;;;;;13.23;2.47;;;;;;;8.32;100.00;101941.66;4986068;28;20450;-80
2022/11/10 07:02:37;;;;;;;14.65;3.00;;;;;;;8.44;100.00;101946.88;4990053;28;20073;-78
2022/11/10 07:05:21;;;;;;;15.90;2.72;;;;;;;8.36;100.00;101955.16;4991614;28;20104;-82
2022/11/10 07:08:15;;;;;;;12.38;2.38;;;;;;;8.37;100.00;101962.81;4984543;28;20038;-84
2022/11/10 07:10:58;;;;;;;10.18;2.38;;;;;;;8.42;100.00;101975.44;4984155;28;20076;-80
2022/11/10 07:13:43;;;;;;;17.17;2.20;;;;;;;8.44;100.00;101981.31;4983066;28;20391;-80
2022/11/10 07:16:29;;;;;;;11.18;3.67;;;;;;;8.53;100.00;101982.38;4985727;28;20113;-84
2022/11/10 07:19:13;;;;;;;20.63;2.28;;;;;;;8.55;100.00;101983.94;4987572;28;20451;-82
2022/11/10 07:21:57;;;;;;;21.75;3.35;;;;;;;8.54;100.00;101990.03;4984692;28;20069;-78
2022/11/10 07:24:41;;;;;;;19.83;2.83;;;;;;;8.59;100.00;101992.31;4992860;28;20053;-79
2022/11/10 07:27:25;;;;;;;14.23;2.10;;;;;;;8.58;100.00;101988.06;4986546;28;20050;-84
2022/11/10 07:30:09;;;;;;;18.55;2.17;;;;;;;8.57;100.00;101996.75;5009854;28;20053;-78
2022/11/10 07:33:02;;;;;;;14.38;2.03;;;;;;;8.66;100.00;101995.22;4989090;28;20522;-81
2022/11/10 07:35:55;;;;;;;9.43;2.10;;;;;;;8.62;100.00;102006.75;4990431;28;20056;-78
2022/11/10 07:38:39;;;;;;;;;;;;;;;8.67;100.00;102005.47;4991429;28;20221;-79
2022/11/10 07:41:23;;;;;;;16.25;2.70;;;;;;;8.70;100.00;102009.56;4995123;28;19933;-80
2022/11/10 07:44:08;;;;;;;11.45;2.08;;;;;;;8.69;100.00;102013.94;4991915;28;20064;-78
2022/11/10 07:46:52;;;;;;;12.52;2.17;;;;;;;8.64;100.00;102021.19;4994472;28;20119;-79
2022/11/10 07:49:36;;;;;;;22.75;3.38;;;;;;;8.77;100.00;102023.72;4989524;28;20104;-80
2022/11/10 07:52:19;;;;;;;11.88;2.05;;;;;;;8.85;100.00;102021.38;4994169;28;20053;-78
2022/11/10 07:55:05;;;;;;;17.10;1.98;;;;;;;8.87;100.00;102032.44;4993154;28;20527;-81
2022/11/10 07:57:49;;;;;;;12.70;2.00;;;;;;;8.88;100.00;102035.84;4997919;28;20091;-80
2022/11/10 08:00:33;;;;;;;16.70;3.05;;;;;;;8.92;100.00;102040.66;4998803;28;20072;-80
2022/11/10 08:03:20;;;;;;;11.63;4.32;;;;;;;9.02;100.00;102045.16;4989861;28;20049;-81
2022/11/10 08:06:04;;;;;;;22.10;6.20;;;;;;;9.08;100.00;102050.69;4994942;28;20049;-79
2022/11/10 08:08:48;;;;;;;21.63;3.45;;;;;;;9.15;100.00;102051.91;4990345;28;20122;-81
2022/11/10 08:11:32;;;;;;;19.70;3.75;;;;;;;9.19;100.00;102054.22;4991110;28;20410;-79
2022/11/10 08:14:16;;;;;;;14.48;2.33;;;;;;;9.27;100.00;102064.84;4993047;28;20057;-77
2022/11/10 08:17:00;;;;;;;14.60;4.25;;;;;;;9.33;100.00;102069.53;4986494;28;20673;-79
2022/11/10 08:19:44;;;;;;;16.35;3.72;;;;;;;9.66;98.63;102066.13;4992387;28;20103;-81
2022/11/10 08:22:28;;;;;;;15.90;2.00;;;;;;;9.89;97.56;102077.28;4988656;28;20097;-77
2022/11/10 08:25:12;;;;;;;21.73;2.17;;;;;;;10.10;96.00;102077.34;4989382;28;20049;-81
2022/11/10 08:28:11;;;;;;;19.98;2.55;;;;;;;10.22;94.80;102080.75;4996308;28;20045;-78
2022/11/10 08:30:56;;;;;;;15.85;1.92;;;;;;;10.46;93.87;102080.56;4986782;28;20049;-79
2022/11/10 08:33:40;;;;;;;14.52;2.63;;;;;;;10.80;92.00;102085.59;4989978;28;20044;-78
2022/11/10 08:36:24;;;;;;;14.18;2.10;;;;;;;10.97;90.83;102073.03;4991753;28;20415;-80
2022/11/10 08:39:09;;;;;;;13.45;2.05;;;;;;;11.16;88.95;102080.09;4991717;28;20053;-80
2022/11/10 08:41:52;;;;;;;15.63;2.33;;;;;;;11.26;88.65;102083.56;4992706;28;20418;-79
2022/11/10 08:44:37;;;;;;;20.85;2.85;;;;;;;11.28;88.77;102082.50;4986367;28;20057;-79
2022/11/10 08:47:21;;;;;;;14.05;2.55;;;;;;;11.34;88.07;102080.31;4989127;28;20046;-80
2022/11/10 08:50:06;;;;;;;25.17;5.05;;;;;;;11.35;87.89;102089.75;4989481;28;20045;-78
2022/11/10 08:52:50;;;;;;;13.75;2.65;;;;;;;11.22;89.06;102093.38;4991268;28;20057;-81
2022/11/10 08:55:35;;;;;;;15.65;2.55;;;;;;;11.23;89.29;102099.41;4991226;28;20193;-82
2022/11/10 08:58:22;;;;;;;22.42;3.33;;;;;;;10.95;90.51;102103.47;4991874;28;20467;-80
2022/11/10 09:01:10;;;;;;;19.92;2.75;;;;;;;10.89;91.49;102104.81;4989359;28;20089;-79
2022/11/10 09:03:54;;;;;;;13.18;2.60;;;;;;;10.83;91.63;102105.28;4989433;28;20105;-82
2022/11/10 09:06:45;;;;;;;14.00;2.10;;;;;;;10.87;91.46;102098.91;4995383;28;20109;-79
2022/11/10 09:09:29;;;;;;;13.10;3.03;;;;;;;11.01;91.42;102101.19;4991418;28;20104;-79
2022/11/10 09:12:13;;;;;;;20.05;2.70;;;;;;;11.06;91.61;102108.59;4994715;28;20045;-81
2022/11/10 09:14:59;;;;;;;10.05;1.83;;;;;;;11.03;91.70;102099.28;4989618;28;20076;-78
2022/11/10 09:17:44;;;;;;;18.40;2.10;;;;;;;10.93;92.69;102111.38;4992966;28;20046;-80
2022/11/10 09:20:29;;;;;;;17.25;2.53;;;;;;;10.98;91.65;102118.78;4990178;28;20048;-79
2022/11/10 09:23:16;;;;;;;11.48;2.00;;;;;;;11.14;92.03;102116.56;4985818;28;20053;-78
2022/11/10 09:26:01;;;;;;;11.50;2.20;;;;;;;11.07;92.33;102105.84;4988896;28;20502;-78
2022/11/10 09:28:45;;;;;;;17.58;3.40;;;;;;;11.04;92.01;102105.31;4987564;28;20093;-79
2022/11/10 09:31:29;;;;;;;21.08;3.05;;;;;;;11.12;93.08;102102.06;4990774;28;20076;-77
2022/11/10 09:34:13;;;;;;;17.00;2.03;;;;;;;11.33;92.17;102110.66;4992214;28;20092;-78
2022/11/10 09:37:02;;;;;;;20.77;1.98;;;;;;;11.30;91.46;102114.34;4989956;28;20068;-81
2022/11/10 09:39:46;;;;;;;16.42;2.30;;;;;;;11.23;91.27;102125.38;4980842;28;20050;-79
2022/11/10 09:42:37;;;;;;;21.15;2.45;;;;;;;11.30;91.87;102126.47;4991553;28;20053;-77
2022/11/10 09:45:25;;;;;;;16.88;1.45;;;;;;;11.30;91.92;102131.66;4990955;28;20069;-78
2022/11/10 09:48:29;;;;;;;14.85;1.90;;;;;;;11.39;92.15;102130.91;4987193;28;20045;-81
2022/11/10 09:51:21;;;;;;;18.90;2.20;;;;;;;11.51;91.20;102144.66;4988494;28;20089;-79
2022/11/10 09:54:20;;;;;;;19.75;2.03;;;;;;;11.48;91.47;102140.53;4989278;28;20075;-79
2022/11/10 09:57:09;;;;;;;15.15;2.35;;;;;;;11.50;92.18;102149.00;4990071;28;20049;-80
2022/11/10 09:59:53;;;;;;;17.40;2.53;;;;;;;11.47;92.45;102154.47;4991024;28;20049;-80
2022/11/10 10:02:55;;;;;;;15.73;2.20;;;;;;;11.59;91.29;102152.63;4985734;28;20037;-77
2022/11/10 10:06:01;;;;;;;22.95;2.08;;;;;;;11.61;90.70;102168.06;4986137;28;20134;-80
2022/11/10 10:09:02;;;;;;;18.20;2.42;;;;;;;11.69;90.69;102160.44;4988489;28;20065;-79
2022/11/10 10:11:59;;;;;;;28.25;2.28;;;;;;;11.75;90.50;102162.50;4989504;28;20049;-78
2022/11/10 10:15:34;;;;;;;17.17;2.22;;;;;;;11.78;89.58;102175.25;5001818;28;20081;-79
2022/11/10 10:18:41;;;;;;;23.95;2.20;;;;;;;11.70;89.96;102164.69;4996524;28;20134;-82
2022/11/10 10:21:46;;;;;;;17.88;2.45;;;;;;;11.80;90.08;102170.75;4994173;28;20056;-80
2022/11/10 10:24:32;;;;;;;19.70;2.45;;;;;;;11.84;90.23;102174.72;4991127;28;20462;-81
2022/11/10 10:27:22;;;;;;;11.35;1.90;;;;;;;11.95;88.82;102173.03;4993367;28;20097;-81
2022/11/10 10:30:18;;;;;;;18.52;2.60;;;;;;;12.06;88.94;102167.75;4989867;28;20049;-80
2022/11/10 10:33:28;;;;;;;15.82;2.15;;;;;;;11.94;89.40;102163.56;4996893;28;20713;-82
2022/11/10 10:36:24;;;;;;;14.15;1.65;;;;;;;11.97;88.50;102160.72;4990347;28;20470;-80
2022/11/10 10:39:23;;;;;;;8.57;1.80;;;;;;;12.03;88.41;102165.38;4991339;28;20111;-80
2022/11/10 10:42:25;;;;;;;16.08;1.70;;;;;;;12.02;88.63;102156.78;4986343;28;20112;-80
2022/11/10 10:45:23;;;;;;;17.60;1.75;;;;;;;12.18;87.17;102150.25;4988979;28;20902;-80
2022/11/10 10:48:24;;;;;;;12.07;1.77;;;;;;;12.17;87.20;102156.41;4990907;28;20132;-82
2022/11/10 10:51:09;;;;;;;16.45;2.47;;;;;;;12.33;87.01;102156.69;4997755;28;20052;-83
2022/11/10 10:53:53;;;;;;;20.08;2.10;;;;;;;12.27;85.76;102165.84;4984923;28;20066;-78
2022/11/10 10:56:37;;;;;;;16.90;1.58;;;;;;;12.26;85.51;102159.03;4989592;28;20127;-80
2022/11/10 10:59:22;;;;;;;15.77;1.65;;;;;;;12.35;84.94;102164.38;4991351;28;20640;-78
2022/11/10 11:02:25;;;;;;;14.43;1.92;;;;;;;12.26;85.65;102164.22;4992681;28;20045;-80
2022/11/10 11:05:16;;;;;;;24.73;3.20;;;;;;;12.25;85.41;102166.97;4986670;28;20049;-79
2022/11/10 11:08:02;;;;;;;14.90;2.15;;;;;;;12.34;85.62;102175.72;4995119;28;20447;-80
2022/11/10 11:10:46;;;;;;;15.70;1.73;;;;;;;12.36;85.24;102181.63;4991451;28;20045;-79
2022/11/10 11:13:30;;;;;;;12.75;1.38;;;;;;;12.37;85.29;102183.28;4994964;28;20076;-83
2022/11/10 11:16:14;;;;;;;9.35;1.70;;;;;;;12.45;84.72;102196.41;4992879;28;20104;-80
2022/11/10 11:18:58;;;;;;;15.27;2.28;;;;;;;12.58;82.99;102197.00;4993940;28;20053;-80
2022/11/10 11:22:20;;;;;;;11.30;1.52;;;;;;;12.57;83.33;102194.53;4992995;28;20041;-79
2022/11/10 11:25:30;;;;;;;21.63;2.47;;;;;;;12.60;82.97;102196.84;5005354;28;20126;-81
2022/11/10 11:28:37;;;;;;;16.35;1.70;;;;;;;12.52;83.53;102200.13;4988820;28;20126;-82
2022/11/10 11:31:37;;;;;;;13.70;1.80;;;;;;;12.69;82.66;102205.63;4995146;28;20042;-80
2022/11/10 11:34:33;;;;;;;13.20;1.58;;;;;;;12.68;82.19;102202.22;4996111;28;20406;-82
2022/11/10 11:37:36;;;;;;;9.52;2.22;;;;;;;12.73;81.64;102213.03;4992222;28;20953;-81
2022/11/10 11:40:44;;;;;;;12.80;1.85;;;;;;;12.57;83.00;102212.75;4988161;28;20105;-81
2022/11/10 11:44:04;;;;;;;14.80;1.70;;;;;;;12.57;83.61;102212.75;4988882;28;20243;-83
2022/11/10 11:47:13;;;;;;;8.23;1.63;;;;;;;12.65;83.05;102228.50;5004036;28;20089;-80
2022/11/10 11:50:22;;;;;;;11.00;1.35;;;;;;;12.84;79.79;102218.09;4989978;28;20044;-80
2022/11/10 11:53:32;;;;;;;14.55;1.88;;;;;;;12.84;79.93;102218.09;4993193;28;20634;-80
2022/11/10 11:56:29;;;;;;;8.02;1.77;;;;;;;12.82;80.05;102219.22;4994533;28;20113;-80
2022/11/10 11:59:27;;;;;;;7.35;1.33;;;;;;;12.69;81.45;102218.66;4994023;28;20045;-81
2022/11/10 12:02:26;;;;;;;8.82;1.42;;;;;;;12.89;80.80;102229.91;4987773;28;20049;-80
2022/11/10 12:05:42;;;;;;;16.90;1.67;;;;;;;12.84;80.89;102230.31;4994737;28;20053;-81
2022/11/10 12:08:45;;;;;;;10.25;1.63;;;;;;;12.93;79.93;102226.88;4995214;28;20093;-81
2022/11/10 12:11:53;;;;;;;13.13;2.23;;;;;;;12.99;79.29;102228.13;4993616;28;20522;-81
2022/11/10 12:15:19;;;;;;;18.08;1.48;;;;;;;13.05;78.27;102228.41;4995364;28;20042;-81
2022/11/10 12:18:27;;;;;;;11.50;1.38;;;;;;;12.97;78.97;102235.25;5008110;28;20093;-80
2022/11/10 12:21:55;;;;;;;7.65;1.20;;;;;;;13.16;77.22;102237.84;4997520;28;20097;-79
2022/11/10 12:24:49;;;;;;;8.73;1.08;;;;;;;13.14;77.22;102249.38;4989912;28;20126;-81
2022/11/10 12:27:45;;;;;;;12.95;1.50;;;;;;;13.17;77.12;102239.50;4983983;28;20097;-78
2022/11/10 12:30:29;;;;;;;10.90;1.40;;;;;;;13.16;77.56;102247.44;4999968;28;20104;-79
2022/11/10 12:33:34;;;;;;;11.82;1.60;;;;;;;13.18;77.78;102248.94;4991169;28;20539;-81
2022/11/10 12:36:20;;;;;;;15.52;1.67;;;;;;;13.07;78.29;102254.28;4994669;28;20052;-81
2022/11/10 12:39:28;;;;;;;14.07;1.67;;;;;;;13.24;77.69;102255.38;4991393;28;20091;-80
2022/11/10 12:42:21;;;;;;;9.95;2.13;;;;;;;13.15;78.15;102251.03;4993238;28;20065;-80
2022/11/10 12:45:16;;;;;;;12.82;1.73;;;;;;;13.15;77.14;102254.44;4990752;28;20807;-78
2022/11/10 12:48:03;;;;;;;11.52;1.75;;;;;;;13.20;77.59;102256.63;4987611;28;20403;-81
2022/11/10 12:51:16;;;;;;;7.57;1.10;;;;;;;13.33;75.51;102266.78;4994676;28;20457;-82
2022/11/10 12:54:00;;;;;;;18.52;2.35;;;;;;;13.39;76.15;102267.06;5000825;28;20762;-77
2022/11/10 12:56:57;;;;;;;10.35;1.83;;;;;;;13.39;76.33;102263.63;4995589;28;20061;-79
2022/11/10 12:59:52;;;;;;;9.90;1.83;;;;;;;13.22;77.58;102271.16;4987183;28;20057;-80
2022/11/10 13:02:43;;;;;;;13.52;2.05;;;;;;;13.24;77.75;102269.25;4992787;28;20088;-82
2022/11/10 13:05:32;;;;;;;9.77;1.90;;;;;;;13.42;76.81;102269.38;4989473;28;20068;-78
2022/11/10 13:08:26;;;;;;;11.88;1.20;;;;;;;13.34;76.08;102271.88;4992343;28;20427;-84